sensor_id;sensor_type;location;lat;lon;timestamp;pressure;altitude;pressure_sealevel;temperature;humidity
33288;BME280;19657;50.452;30.372;2024-01-25T00:01:30;140549.30;;;-7.13;100.00
33288;BME280;19657;50.452;30.372;2024-01-25T00:04:17;140554.50;;;-7.11;100.00
33288;BME280;19657;50.452;30.372;2024-01-25T00:07:03;140559.19;;;-7.09;100.00
33288;BME280;19657;50.452;30.372;2024-01-25T00:09:50;140564.63;;;-7.06;100.00
33288;BME280;19657;50.452;30.372;2024-01-25T00:12:37;140572.78;;;-7.03;100.00
33288;BME280;19657;50.452;30.372;2024-01-25T00:15:23;140579.17;;;-7.00;100.00
33288;BME280;19657;50.452;30.372;2024-01-25T00:18:09;140573.00;;;-7.03;100.00
33288;BME280;19657;50.452;30.372;2024-01-25T00:20:56;140573.50;;;-7.03;100.00
33288;BME280;19657;50.452;30.372;2024-01-25T00:23:42;140572.27;;;-7.04;100.00
33288;BME280;19657;50.452;30.372;2024-01-25T00:26:28;140579.42;;;-7.00;100.00
33288;BME280;19657;50.452;30.372;2024-01-25T00:29:15;140595.73;;;-6.93;100.00
33288;BME280;19657;50.452;30.372;2024-01-25T00:32:02;140607.34;;;-6.89;100.00
33288;BME280;19657;50.452;30.372;2024-01-25T00:34:49;140613.28;;;-6.86;100.00
33288;BME280;19657;50.452;30.372;2024-01-25T00:37:37;140622.92;;;-6.83;100.00
33288;BME280;19657;50.452;30.372;2024-01-25T00:40:23;140628.59;;;-6.80;100.00
33288;BME280;19657;50.452;30.372;2024-01-25T00:43:11;140636.00;;;-6.77;100.00
33288;BME280;19657;50.452;30.372;2024-01-25T00:45:58;140642.17;;;-6.74;100.00
33288;BME280;19657;50.452;30.372;2024-01-25T00:48:45;140641.92;;;-6.74;100.00
33288;BME280;19657;50.452;30.372;2024-01-25T00:51:32;140646.13;;;-6.72;100.00
33288;BME280;19657;50.452;30.372;2024-01-25T00:54:18;140645.89;;;-6.72;100.00
33288;BME280;19657;50.452;30.372;2024-01-25T00:57:05;140657.48;;;-6.68;100.00
33288;BME280;19657;50.452;30.372;2024-01-25T00:59:52;140670.33;;;-6.63;100.00
33288;BME280;19657;50.452;30.372;2024-01-25T01:02:40;140675.03;;;-6.61;100.00
33288;BME280;19657;50.452;30.372;2024-01-25T01:05:29;140682.92;;;-6.58;100.00
33288;BME280;19657;50.452;30.372;2024-01-25T01:08:16;140686.39;;;-6.56;100.00
33288;BME280;19657;50.452;30.372;2024-01-25T01:11:04;140697.03;;;-6.52;100.00
33288;BME280;19657;50.452;30.372;2024-01-25T01:13:50;140707.91;;;-6.47;100.00
33288;BME280;19657;50.452;30.372;2024-01-25T01:16:36;140709.13;;;-6.47;100.00
33288;BME280;19657;50.452;30.372;2024-01-25T01:19:23;140711.61;;;-6.46;100.00
33288;BME280;19657;50.452;30.372;2024-01-25T01:22:10;140713.33;;;-6.45;100.00
33288;BME280;19657;50.452;30.372;2024-01-25T01:24:57;140717.78;;;-6.43;100.00
33288;BME280;19657;50.452;30.372;2024-01-25T01:27:44;140729.39;;;-6.38;100.00
33288;BME280;19657;50.452;30.372;2024-01-25T01:30:30;140740.77;;;-6.34;100.00
33288;BME280;19657;50.452;30.372;2024-01-25T01:33:16;140746.20;;;-6.31;100.00
33288;BME280;19657;50.452;30.372;2024-01-25T01:36:02;140745.95;;;-6.31;100.00
33288;BME280;19657;50.452;30.372;2024-01-25T01:38:49;140751.63;;;-6.29;100.00
33288;BME280;19657;50.452;30.372;2024-01-25T01:41:35;140746.91;;;-6.31;100.00
33288;BME280;19657;50.452;30.372;2024-01-25T01:44:22;140750.14;;;-6.29;100.00
33288;BME280;19657;50.452;30.372;2024-01-25T01:47:09;140748.41;;;-6.30;100.00
33288;BME280;19657;50.452;30.372;2024-01-25T01:49:55;140747.92;;;-6.30;100.00
33288;BME280;19657;50.452;30.372;2024-01-25T01:52:42;140749.16;;;-6.30;100.00
33288;BME280;19657;50.452;30.372;2024-01-25T01:55:30;140751.61;;;-6.29;100.00
33288;BME280;19657;50.452;30.372;2024-01-25T01:58:18;140756.06;;;-6.27;100.00
33288;BME280;19657;50.452;30.372;2024-01-25T02:01:05;140760.03;;;-6.25;100.00
33288;BME280;19657;50.452;30.372;2024-01-25T02:03:52;140758.05;;;-6.26;100.00
33288;BME280;19657;50.452;30.372;2024-01-25T02:06:40;140766.20;;;-6.23;100.00
33288;BME280;19657;50.452;30.372;2024-01-25T02:09:29;140779.30;;;-6.18;100.00
33288;BME280;19657;50.452;30.372;2024-01-25T02:12:16;140789.42;;;-6.13;100.00
33288;BME280;19657;50.452;30.372;2024-01-25T02:15:06;140792.91;;;-6.12;100.00
33288;BME280;19657;50.452;30.372;2024-01-25T02:17:52;140795.16;;;-6.11;100.00
33288;BME280;19657;50.452;30.372;2024-01-25T02:20:39;140802.30;;;-6.08;100.00
33288;BME280;19657;50.452;30.372;2024-01-25T02:23:26;140811.20;;;-6.04;100.00
33288;BME280;19657;50.452;30.372;2024-01-25T02:26:12;140809.95;;;-6.05;100.00
33288;BME280;19657;50.452;30.372;2024-01-25T02:28:59;140812.19;;;-6.04;100.00
33288;BME280;19657;50.452;30.372;2024-01-25T02:31:46;140811.45;;;-6.04;100.00
33288;BME280;19657;50.452;30.372;2024-01-25T02:34:32;140815.41;;;-6.03;100.00
33288;BME280;19657;50.452;30.372;2024-01-25T02:37:19;140820.58;;;-6.01;100.00
33288;BME280;19657;50.452;30.372;2024-01-25T02:40:06;140827.28;;;-5.98;100.00
33288;BME280;19657;50.452;30.372;2024-01-25T02:42:52;140826.53;;;-5.98;100.00
33288;BME280;19657;50.452;30.372;2024-01-25T02:45:39;140828.98;;;-5.97;100.00
33288;BME280;19657;50.452;30.372;2024-01-25T02:48:25;140836.41;;;-5.94;100.00
33288;BME280;19657;50.452;30.372;2024-01-25T02:51:12;140846.00;;;-5.90;100.00
33288;BME280;19657;50.452;30.372;2024-01-25T02:53:58;140853.92;;;-5.86;100.00
33288;BME280;19657;50.452;30.372;2024-01-25T02:56:44;140863.31;;;-5.83;100.00
33288;BME280;19657;50.452;30.372;2024-01-25T02:59:31;140864.31;;;-5.82;100.00
33288;BME280;19657;50.452;30.372;2024-01-25T03:02:18;140861.09;;;-5.83;100.00
33288;BME280;19657;50.452;30.372;2024-01-25T03:05:05;140860.59;;;-5.84;100.00
33288;BME280;19657;50.452;30.372;2024-01-25T03:07:51;140861.84;;;-5.83;100.00
33288;BME280;19657;50.452;30.372;2024-01-25T03:10:38;140870.73;;;-5.80;100.00
33288;BME280;19657;50.452;30.372;2024-01-25T03:13:24;140878.16;;;-5.77;100.00
33288;BME280;19657;50.452;30.372;2024-01-25T03:16:11;140873.45;;;-5.79;100.00
33288;BME280;19657;50.452;30.372;2024-01-25T03:18:57;140868.50;;;-5.81;100.00
33288;BME280;19657;50.452;30.372;2024-01-25T03:21:43;140864.80;;;-5.82;100.00
33288;BME280;19657;50.452;30.372;2024-01-25T03:24:30;140873.72;;;-5.78;100.00
33288;BME280;19657;50.452;30.372;2024-01-25T03:27:16;140877.91;;;-5.77;100.00
33288;BME280;19657;50.452;30.372;2024-01-25T03:30:03;140884.08;;;-5.74;100.00
33288;BME280;19657;50.452;30.372;2024-01-25T03:32:51;140886.30;;;-5.73;100.00
33288;BME280;19657;50.452;30.372;2024-01-25T03:35:38;140891.98;;;-5.71;100.00
33288;BME280;19657;50.452;30.372;2024-01-25T03:38:24;140889.28;;;-5.72;100.00
33288;BME280;19657;50.452;30.372;2024-01-25T03:41:11;140889.53;;;-5.72;100.00
33288;BME280;19657;50.452;30.372;2024-01-25T03:43:57;140902.39;;;-5.67;100.00
33288;BME280;19657;50.452;30.372;2024-01-25T03:46:44;140909.08;;;-5.64;100.00
33288;BME280;19657;50.452;30.372;2024-01-25T03:49:30;140909.55;;;-5.64;100.00
33288;BME280;19657;50.452;30.372;2024-01-25T03:52:16;140918.45;;;-5.60;100.00
33288;BME280;19657;50.452;30.372;2024-01-25T03:55:04;140917.47;;;-5.60;100.00
33288;BME280;19657;50.452;30.372;2024-01-25T03:57:50;140921.92;;;-5.59;100.00
33288;BME280;19657;50.452;30.372;2024-01-25T04:00:36;140926.13;;;-5.57;100.00
33288;BME280;19657;50.452;30.372;2024-01-25T18:14:37;141000.56;;;-5.26;100.00
33288;BME280;19657;50.452;30.372;2024-01-25T18:17:24;141004.05;;;-5.25;100.00
33288;BME280;19657;50.452;30.372;2024-01-25T18:20:11;141008.47;;;-5.23;100.00
33288;BME280;19657;50.452;30.372;2024-01-25T18:22:58;141001.33;;;-5.26;100.00
33288;BME280;19657;50.452;30.372;2024-01-25T18:25:45;141004.28;;;-5.25;100.00
33288;BME280;19657;50.452;30.372;2024-01-25T18:28:31;141012.45;;;-5.21;100.00
33288;BME280;19657;50.452;30.372;2024-01-25T18:31:18;141019.13;;;-5.18;100.00
33288;BME280;19657;50.452;30.372;2024-01-25T18:34:05;141017.66;;;-5.19;100.00
33288;BME280;19657;50.452;30.372;2024-01-25T18:36:53;141013.92;;;-5.20;100.00
33288;BME280;19657;50.452;30.372;2024-01-25T18:39:40;141021.11;;;-5.17;100.00
33288;BME280;19657;50.452;30.372;2024-01-25T18:42:27;141033.22;;;-5.12;100.00
33288;BME280;19657;50.452;30.372;2024-01-25T18:45:13;141046.34;;;-5.07;100.00
33288;BME280;19657;50.452;30.372;2024-01-25T18:48:00;141050.80;;;-5.05;100.00
33288;BME280;19657;50.452;30.372;2024-01-25T18:50:48;141056.00;;;-5.03;100.00
33288;BME280;19657;50.452;30.372;2024-01-25T18:53:35;141051.78;;;-5.05;100.00
33288;BME280;19657;50.452;30.372;2024-01-25T18:56:24;141055.75;;;-5.03;100.00
33288;BME280;19657;50.452;30.372;2024-01-25T18:59:13;141062.66;;;-5.00;100.00
33288;BME280;19657;50.452;30.372;2024-01-25T19:02:01;141059.94;;;-5.02;100.00
33288;BME280;19657;50.452;30.372;2024-01-25T19:04:47;141048.83;;;-5.06;100.00
33288;BME280;19657;50.452;30.372;2024-01-25T19:07:37;141031.23;;;-5.13;100.00
33288;BME280;19657;50.452;30.372;2024-01-25T19:10:25;141014.44;;;-5.20;100.00
33288;BME280;19657;50.452;30.372;2024-01-25T19:13:11;140995.84;;;-5.28;100.00
33288;BME280;19657;50.452;30.372;2024-01-25T19:16:00;140991.91;;;-5.30;100.00
33288;BME280;19657;50.452;30.372;2024-01-25T19:18:47;140999.83;;;-5.26;100.00
33288;BME280;19657;50.452;30.372;2024-01-25T19:21:34;141005.28;;;-5.24;100.00
33288;BME280;19657;50.452;30.372;2024-01-25T19:24:20;141002.80;;;-5.25;100.00
33288;BME280;19657;50.452;30.372;2024-01-25T19:27:09;140998.59;;;-5.27;100.00
33288;BME280;19657;50.452;30.372;2024-01-25T19:29:56;140967.91;;;-5.40;100.00
33288;BME280;19657;50.452;30.372;2024-01-25T19:32:47;140937.25;;;-5.52;100.00
33288;BME280;19657;50.452;30.372;2024-01-25T19:35:34;140915.97;;;-5.61;100.00
33288;BME280;19657;50.452;30.372;2024-01-25T19:38:21;140907.08;;;-5.65;100.00
33288;BME280;19657;50.452;30.372;2024-01-25T19:41:10;140891.48;;;-5.71;100.00
33288;BME280;19657;50.452;30.372;2024-01-25T19:43:57;140873.20;;;-5.79;100.00
33288;BME280;19657;50.452;30.372;2024-01-25T19:46:44;140871.72;;;-5.79;100.00
33288;BME280;19657;50.452;30.372;2024-01-25T19:49:30;140887.55;;;-5.73;100.00
33288;BME280;19657;50.452;30.372;2024-01-25T19:52:17;140905.34;;;-5.65;100.00
33288;BME280;19657;50.452;30.372;2024-01-25T19:55:04;140914.28;;;-5.62;100.00
33288;BME280;19657;50.452;30.372;2024-01-25T19:57:53;140901.39;;;-5.67;100.00
33288;BME280;19657;50.452;30.372;2024-01-25T20:00:40;140899.66;;;-5.68;100.00
33288;BME280;19657;50.452;30.372;2024-01-25T20:03:29;140915.73;;;-5.61;100.00
33288;BME280;19657;50.452;30.372;2024-01-25T20:06:16;140935.52;;;-5.53;100.00
33288;BME280;19657;50.452;30.372;2024-01-25T20:09:04;140931.30;;;-5.55;100.00
33288;BME280;19657;50.452;30.372;2024-01-25T20:11:53;140939.00;;;-5.52;100.00
33288;BME280;19657;50.452;30.372;2024-01-25T20:14:40;140950.36;;;-5.47;100.00
33288;BME280;19657;50.452;30.372;2024-01-25T20:17:30;140950.86;;;-5.47;100.00
33288;BME280;19657;50.452;30.372;2024-01-25T20:20:20;140954.05;;;-5.46;100.00
33288;BME280;19657;50.452;30.372;2024-01-25T20:23:19;140943.66;;;-5.50;100.00
33288;BME280;19657;50.452;30.372;2024-01-25T20:26:05;140949.13;;;-5.48;100.00
33288;BME280;19657;50.452;30.372;2024-01-25T20:28:52;140943.66;;;-5.50;100.00
33288;BME280;19657;50.452;30.372;2024-01-25T20:31:38;140934.28;;;-5.54;100.00
33288;BME280;19657;50.452;30.372;2024-01-25T20:34:24;140908.55;;;-5.64;100.00
33288;BME280;19657;50.452;30.372;2024-01-25T20:37:11;140896.94;;;-5.69;100.00
33288;BME280;19657;50.452;30.372;2024-01-25T20:39:57;140896.22;;;-5.69;100.00
33288;BME280;19657;50.452;30.372;2024-01-25T20:42:44;140903.13;;;-5.66;100.00
33288;BME280;19657;50.452;30.372;2024-01-25T20:45:31;140912.78;;;-5.62;100.00
33288;BME280;19657;50.452;30.372;2024-01-25T20:48:17;140915.72;;;-5.61;100.00
33288;BME280;19657;50.452;30.372;2024-01-25T20:51:04;140922.41;;;-5.58;100.00
33288;BME280;19657;50.452;30.372;2024-01-25T20:53:51;140921.44;;;-5.59;100.00
33288;BME280;19657;50.452;30.372;2024-01-25T20:56:49;140924.88;;;-5.57;100.00
33288;BME280;19657;50.452;30.372;2024-01-25T20:59:36;140932.31;;;-5.54;100.00
33288;BME280;19657;50.452;30.372;2024-01-25T21:02:24;140914.00;;;-5.62;100.00
33288;BME280;19657;50.452;30.372;2024-01-25T21:05:11;140885.83;;;-5.74;100.00
33288;BME280;19657;50.452;30.372;2024-01-25T21:07:58;140865.78;;;-5.82;100.00
33288;BME280;19657;50.452;30.372;2024-01-25T21:10:45;140851.44;;;-5.88;100.00
33288;BME280;19657;50.452;30.372;2024-01-25T21:13:31;140832.20;;;-5.96;100.00
33288;BME280;19657;50.452;30.372;2024-01-25T21:16:18;140819.34;;;-6.01;100.00
33288;BME280;19657;50.452;30.372;2024-01-25T21:19:08;140806.25;;;-6.06;100.00
33288;BME280;19657;50.452;30.372;2024-01-25T21:21:55;140802.06;;;-6.08;100.00
33288;BME280;19657;50.452;30.372;2024-01-25T21:24:42;140779.30;;;-6.18;100.00
33288;BME280;19657;50.452;30.372;2024-01-25T21:27:28;140773.14;;;-6.20;100.00
33288;BME280;19657;50.452;30.372;2024-01-25T21:30:15;140777.09;;;-6.19;100.00
33288;BME280;19657;50.452;30.372;2024-01-25T21:33:02;140790.67;;;-6.13;100.00
33288;BME280;19657;50.452;30.372;2024-01-25T21:35:49;140782.53;;;-6.16;100.00
33288;BME280;19657;50.452;30.372;2024-01-25T21:38:35;140779.06;;;-6.18;100.00
33288;BME280;19657;50.452;30.372;2024-01-25T21:41:22;140775.34;;;-6.19;100.00
33288;BME280;19657;50.452;30.372;2024-01-25T21:44:09;140775.59;;;-6.19;100.00
33288;BME280;19657;50.452;30.372;2024-01-25T21:46:59;140751.38;;;-6.29;100.00
33288;BME280;19657;50.452;30.372;2024-01-25T21:49:48;140735.81;;;-6.36;100.00
33288;BME280;19657;50.452;30.372;2024-01-25T21:52:34;140732.61;;;-6.37;100.00
33288;BME280;19657;50.452;30.372;2024-01-25T21:55:22;140727.17;;;-6.39;100.00
33288;BME280;19657;50.452;30.372;2024-01-25T21:58:08;140712.58;;;-6.45;100.00
33288;BME280;19657;50.452;30.372;2024-01-25T22:00:55;140705.67;;;-6.48;100.00
33288;BME280;19657;50.452;30.372;2024-01-25T22:03:42;140704.42;;;-6.49;100.00
33288;BME280;19657;50.452;30.372;2024-01-25T22:06:28;140696.77;;;-6.52;100.00
33288;BME280;19657;50.452;30.372;2024-01-25T22:09:15;140698.75;;;-6.51;100.00
33288;BME280;19657;50.452;30.372;2024-01-25T22:12:02;140664.16;;;-6.65;100.00
33288;BME280;19657;50.452;30.372;2024-01-25T22:14:48;140627.11;;;-6.81;100.00
33288;BME280;19657;50.452;30.372;2024-01-25T22:17:35;140607.83;;;-6.89;100.00
33288;BME280;19657;50.452;30.372;2024-01-25T22:20:22;140596.72;;;-6.93;100.00
33288;BME280;19657;50.452;30.372;2024-01-25T22:23:08;140593.53;;;-6.94;100.00
33288;BME280;19657;50.452;30.372;2024-01-25T22:25:54;140591.31;;;-6.95;100.00
33288;BME280;19657;50.452;30.372;2024-01-25T22:28:40;140581.16;;;-7.00;100.00
33288;BME280;19657;50.452;30.372;2024-01-25T22:31:27;140578.45;;;-7.01;100.00
33288;BME280;19657;50.452;30.372;2024-01-25T22:34:13;140573.25;;;-7.03;100.00
33288;BME280;19657;50.452;30.372;2024-01-25T22:36:59;140566.34;;;-7.06;100.00
33288;BME280;19657;50.452;30.372;2024-01-25T22:39:46;140555.22;;;-7.10;100.00
33288;BME280;19657;50.452;30.372;2024-01-25T22:42:32;140550.28;;;-7.12;100.00
33288;BME280;19657;50.452;30.372;2024-01-25T22:45:18;140546.59;;;-7.14;100.00
33288;BME280;19657;50.452;30.372;2024-01-25T22:48:07;140548.56;;;-7.13;100.00
33288;BME280;19657;50.452;30.372;2024-01-25T22:50:53;140563.13;;;-7.07;100.00
33288;BME280;19657;50.452;30.372;2024-01-25T22:53:40;140577.20;;;-7.01;100.00
33288;BME280;19657;50.452;30.372;2024-01-25T22:56:27;140572.28;;;-7.03;100.00
33288;BME280;19657;50.452;30.372;2024-01-25T22:59:14;140564.86;;;-7.06;100.00
33288;BME280;19657;50.452;30.372;2024-01-25T23:02:00;140568.81;;;-7.05;100.00
33288;BME280;19657;50.452;30.372;2024-01-25T23:04:46;140581.16;;;-7.00;100.00
33288;BME280;19657;50.452;30.372;2024-01-25T23:07:32;140589.83;;;-6.96;100.00
33288;BME280;19657;50.452;30.372;2024-01-25T23:10:18;140581.66;;;-6.99;100.00
33288;BME280;19657;50.452;30.372;2024-01-25T23:13:05;140563.63;;;-7.07;100.00
33288;BME280;19657;50.452;30.372;2024-01-25T23:15:52;140556.47;;;-7.10;100.00
33288;BME280;19657;50.452;30.372;2024-01-25T23:18:39;140546.59;;;-7.14;100.00
33288;BME280;19657;50.452;30.372;2024-01-25T23:21:25;140541.66;;;-7.16;100.00
33288;BME280;19657;50.452;30.372;2024-01-25T23:24:12;140536.47;;;-7.18;100.00
33288;BME280;19657;50.452;30.372;2024-01-25T23:26:58;140540.67;;;-7.16;100.00
33288;BME280;19657;50.452;30.372;2024-01-25T23:29:43;140546.11;;;-7.14;100.00
33288;BME280;19657;50.452;30.372;2024-01-25T23:32:29;140554.75;;;-7.11;100.00
33288;BME280;19657;50.452;30.372;2024-01-25T23:35:17;140536.47;;;-7.18;100.00
33288;BME280;19657;50.452;30.372;2024-01-25T23:38:03;140526.33;;;-7.23;100.00
33288;BME280;19657;50.452;30.372;2024-01-25T23:40:49;140527.08;;;-7.22;100.00
33288;BME280;19657;50.452;30.372;2024-01-25T23:43:37;140530.30;;;-7.21;100.00
33288;BME280;19657;50.452;30.372;2024-01-25T23:46:24;140531.53;;;-7.20;100.00
33288;BME280;19657;50.452;30.372;2024-01-25T23:49:11;140536.70;;;-7.18;100.00
33288;BME280;19657;50.452;30.372;2024-01-25T23:51:58;140544.61;;;-7.15;100.00
33288;BME280;19657;50.452;30.372;2024-01-25T23:54:45;140553.27;;;-7.11;100.00
33288;BME280;19657;50.452;30.372;2024-01-25T23:57:32;140548.08;;;-7.13;100.00
